Terminal Aerodrome Forecast
Issued by NWS

Home | Current Version | Previous Version | Graphics & Text | Print | Product List | Glossary On
Versions: 1 2 3 4 5 6 7 8 9 10 11 12 13 14 15 16 17 18 19 20 21 22 23 24
000
FTUS43 KBIS 290313 AAA
TAFDIK
TAF AMD
KDIK 290313Z 2903/2924 36008KT P6SM -RA VCTS FEW040CB BKN080
     FM290430 36013KT P6SM BKN040
     FM290600 36015G24KT P6SM BKN015
     FM291500 36006KT P6SM SCT030=

USA.gov is the U.S. government's official web portal to all federal, state and local government web resources and services.